createdAt,value
2022-11-04T00:01:51.889Z,14.78
2022-11-04T00:04:21.493Z,14.70
2022-11-04T00:06:49.914Z,14.41
2022-11-04T00:09:24.138Z,13.42
2022-11-04T00:12:09.924Z,14.45
2022-11-04T00:14:38.336Z,12.77
2022-11-04T00:17:22.894Z,14.64
2022-11-04T00:20:09.604Z,14.42
2022-11-04T00:22:58.045Z,13.95
2022-11-04T00:25:44.184Z,14.82
2022-11-04T00:28:32.748Z,14.77
2022-11-04T00:31:24.048Z,14.87
2022-11-04T00:33:54.453Z,14.71
2022-11-04T00:36:24.226Z,14.64
2022-11-04T00:38:52.759Z,14.77
2022-11-04T00:41:30.548Z,14.63
2022-11-04T00:44:00.126Z,14.45
2022-11-04T00:46:31.424Z,14.22
2022-11-04T00:49:01.365Z,14.26
2022-11-04T00:51:29.693Z,14.07
2022-11-04T00:53:58.604Z,13.52
2022-11-04T00:56:26.955Z,13.92
2022-11-04T00:58:55.090Z,13.73
2022-11-04T01:01:23.395Z,13.79
2022-11-04T01:03:54.940Z,14.02
2022-11-04T01:06:25.522Z,13.98
2022-11-04T01:08:56.921Z,13.95
2022-11-04T01:11:25.435Z,13.57
2022-11-04T01:13:53.735Z,12.98
2022-11-04T01:16:22.471Z,13.23
2022-11-04T01:18:50.870Z,12.96
2022-11-04T01:21:19.160Z,13.43
2022-11-04T01:23:48.779Z,12.65
2022-11-04T01:26:18.762Z,13.39
2022-11-04T01:28:47.457Z,13.44
2022-11-04T01:31:16.968Z,13.30
2022-11-04T01:33:45.544Z,13.47
2022-11-04T01:36:14.394Z,13.45
2022-11-04T01:38:42.735Z,13.61
2022-11-04T01:41:21.389Z,13.49
2022-11-04T01:43:52.331Z,13.35
2022-11-04T01:46:28.384Z,13.21
2022-11-04T01:49:00.461Z,13.25
2022-11-04T01:51:29.966Z,13.33
2022-11-04T01:53:58.148Z,13.25
2022-11-04T01:56:28.272Z,13.45
2022-11-04T01:58:59.231Z,13.55
2022-11-04T02:01:27.485Z,13.06
2022-11-04T02:04:18.580Z,13.66
2022-11-04T02:06:48.043Z,12.87
2022-11-04T02:09:17.250Z,13.62
2022-11-04T02:12:04.237Z,13.59
2022-11-04T02:14:33.018Z,13.50
2022-11-04T02:17:08.044Z,13.49
2022-11-04T02:19:56.403Z,13.65
2022-11-04T02:22:38.093Z,13.55
2022-11-04T02:25:26.934Z,13.66
2022-11-04T02:28:15.126Z,13.54
2022-11-04T02:30:47.930Z,13.70
2022-11-04T02:33:20.597Z,13.44
2022-11-04T02:35:55.641Z,13.70
2022-11-04T02:38:32.891Z,13.68
2022-11-04T02:41:07.243Z,13.57
2022-11-04T02:43:43.323Z,13.63
2022-11-04T02:46:19.080Z,13.62
2022-11-04T02:48:49.028Z,13.67
2022-11-04T02:51:20.687Z,13.53
2022-11-04T02:53:53.833Z,13.56
2022-11-04T02:56:23.391Z,13.53
2022-11-04T02:58:56.044Z,13.52
2022-11-04T03:01:28.784Z,13.50
2022-11-04T03:04:01.921Z,13.55
2022-11-04T03:06:30.830Z,13.47
2022-11-04T03:08:59.052Z,13.36
2022-11-04T03:11:28.439Z,13.49
2022-11-04T03:14:00.030Z,13.46
2022-11-04T03:16:32.913Z,13.38
2022-11-04T03:19:05.195Z,13.38
2022-11-04T03:21:36.434Z,13.37
2022-11-04T03:24:05.736Z,13.31
2022-11-04T03:26:39.169Z,13.30
2022-11-04T03:29:17.224Z,13.26
2022-11-04T03:31:50.300Z,13.31
2022-11-04T03:34:18.357Z,13.31
2022-11-04T03:36:46.670Z,13.26
2022-11-04T03:39:14.765Z,13.29
2022-11-04T03:41:45.665Z,13.26
2022-11-04T03:44:13.727Z,13.18
2022-11-04T03:46:42.058Z,12.99
2022-11-04T03:49:13.316Z,13.02
2022-11-04T03:51:41.387Z,13.00
2022-11-04T03:54:09.710Z,12.97
2022-11-04T03:56:57.570Z,12.96
2022-11-04T03:59:37.788Z,12.99
2022-11-04T04:02:11.689Z,13.04
2022-11-04T04:04:45.569Z,13.04
2022-11-04T04:07:16.340Z,13.10
2022-11-04T04:09:46.595Z,13.05
2022-11-04T04:12:18.376Z,13.05
2022-11-04T04:14:49.803Z,13.11
2022-11-04T04:17:20.850Z,13.08
2022-11-04T04:19:53.897Z,13.07
2022-11-04T04:22:24.375Z,13.13
2022-11-04T04:25:12.076Z,13.12
2022-11-04T04:27:40.888Z,13.01
2022-11-04T04:30:11.234Z,13.12
2022-11-04T04:32:42.467Z,13.16
2022-11-04T04:35:30.009Z,13.21
2022-11-04T04:38:21.816Z,13.24
2022-11-04T04:41:10.942Z,13.26
2022-11-04T04:43:57.974Z,13.26
2022-11-04T04:46:26.300Z,13.12
2022-11-04T04:48:54.296Z,13.05
2022-11-04T04:51:23.923Z,13.01
2022-11-04T04:53:51.978Z,13.05
2022-11-04T04:56:19.968Z,13.04
2022-11-04T04:58:48.079Z,13.14
2022-11-04T05:01:16.268Z,13.20
2022-11-04T05:03:45.407Z,13.26
2022-11-04T05:06:13.575Z,13.24
2022-11-04T05:08:42.921Z,13.16
2022-11-04T05:11:10.987Z,13.07
2022-11-04T05:13:39.071Z,13.06
2022-11-04T05:16:08.658Z,13.14
2022-11-04T05:18:37.142Z,13.11
2022-11-04T05:21:06.005Z,13.13
2022-11-04T05:23:34.126Z,13.11
2022-11-04T05:26:03.575Z,13.13
2022-11-04T05:28:31.796Z,13.15
2022-11-04T05:31:04.075Z,13.07
2022-11-04T05:33:32.212Z,13.03
2022-11-04T05:36:07.020Z,13.12
2022-11-04T05:38:35.125Z,13.20
2022-11-04T05:41:04.650Z,13.23
2022-11-04T05:43:32.921Z,13.23
2022-11-04T05:46:01.263Z,13.23
2022-11-04T05:48:29.707Z,13.11
2022-11-04T05:50:57.773Z,13.24
2022-11-04T05:55:58.787Z,13.15
2022-11-04T05:58:28.207Z,13.15
2022-11-04T06:00:56.257Z,13.16
2022-11-04T06:03:24.329Z,13.20
2022-11-04T06:05:52.320Z,13.24
2022-11-04T06:08:20.366Z,13.26
2022-11-04T06:10:48.463Z,13.23
2022-11-04T06:13:16.478Z,13.20
2022-11-04T06:15:45.895Z,12.99
2022-11-04T06:18:14.044Z,12.85
2022-11-04T06:20:42.057Z,12.65
2022-11-04T06:23:10.116Z,12.65
2022-11-04T06:25:38.141Z,12.54
2022-11-04T06:28:06.423Z,12.53
2022-11-04T06:30:34.709Z,12.41
2022-11-04T06:33:04.126Z,12.28
2022-11-04T06:35:32.191Z,12.07
2022-11-04T06:38:00.334Z,11.79
2022-11-04T06:40:28.386Z,11.57
2022-11-04T06:42:56.445Z,11.55
2022-11-04T06:45:24.482Z,11.35
2022-11-04T06:47:52.560Z,11.35
2022-11-04T06:50:22.156Z,11.28
2022-11-04T06:52:50.248Z,11.39
2022-11-04T06:55:18.280Z,11.33
2022-11-04T06:57:46.341Z,11.37
2022-11-04T07:00:15.345Z,11.29
2022-11-04T07:02:43.531Z,11.25
2022-11-04T07:05:12.204Z,11.25
2022-11-04T07:07:41.657Z,11.20
2022-11-04T07:10:10.403Z,11.11
2022-11-04T07:12:38.514Z,11.36
2022-11-04T07:15:07.673Z,11.53
2022-11-04T07:17:35.779Z,11.74
2022-11-04T07:20:05.531Z,11.89
2022-11-04T07:22:33.605Z,12.08
2022-11-04T07:25:03.068Z,12.29
2022-11-04T07:27:31.147Z,12.56
2022-11-04T07:30:00.835Z,12.93
2022-11-04T07:32:29.274Z,13.28
2022-11-04T07:34:57.298Z,13.45
2022-11-04T07:37:25.420Z,13.44
2022-11-04T07:39:53.479Z,13.43
2022-11-04T07:42:22.936Z,13.54
2022-11-04T07:44:55.793Z,13.63
2022-11-04T07:47:23.848Z,13.56
2022-11-04T07:49:52.033Z,13.72
2022-11-04T07:52:20.303Z,13.78
2022-11-04T07:54:48.357Z,13.85
2022-11-04T07:57:16.441Z,13.85
2022-11-04T07:59:45.873Z,13.90
2022-11-04T08:02:14.037Z,14.00
2022-11-04T08:04:42.204Z,14.20
2022-11-04T08:07:10.388Z,14.35
2022-11-04T08:09:38.502Z,14.43
2022-11-04T08:12:07.248Z,14.51
2022-11-04T08:14:35.379Z,14.81
2022-11-04T08:17:04.948Z,15.11
2022-11-04T08:19:33.043Z,15.59
2022-11-04T08:22:01.220Z,16.03
2022-11-04T08:24:29.248Z,16.45
2022-11-04T08:26:58.073Z,16.92
2022-11-04T08:29:26.426Z,17.35
2022-11-04T08:31:54.486Z,17.79
2022-11-04T08:34:23.915Z,18.13
2022-11-04T08:36:53.318Z,18.44
2022-11-04T08:39:21.480Z,18.68
2022-11-04T08:41:52.209Z,18.81
2022-11-04T08:44:22.307Z,18.73
2022-11-04T08:46:50.557Z,18.41
2022-11-04T08:49:21.358Z,18.15
2022-11-04T08:51:59.558Z,18.15
2022-11-04T08:54:28.623Z,18.18
2022-11-04T08:56:56.637Z,17.93
2022-11-04T08:59:25.542Z,17.60
2022-11-04T09:01:53.730Z,17.34
2022-11-04T09:04:21.984Z,17.19
2022-11-04T09:06:52.391Z,17.03
2022-11-04T09:09:20.890Z,17.05
2022-11-04T09:11:49.284Z,16.75
2022-11-04T09:14:18.644Z,16.94
2022-11-04T09:16:46.731Z,17.04
2022-11-04T09:19:14.820Z,17.36
2022-11-04T09:21:43.104Z,17.49
2022-11-04T09:24:12.654Z,17.86
2022-11-04T09:26:40.728Z,18.01
2022-11-04T09:29:09.869Z,18.06
2022-11-04T09:31:38.450Z,17.89
2022-11-04T09:34:06.593Z,18.08
2022-11-04T09:36:34.766Z,17.91
2022-11-04T09:39:02.858Z,17.61
2022-11-04T09:41:48.346Z,17.48
2022-11-04T09:44:23.649Z,17.37
2022-11-04T09:46:54.170Z,17.32
2022-11-04T09:49:22.832Z,17.27
2022-11-04T09:51:54.830Z,17.23
2022-11-04T09:54:25.587Z,17.20
2022-11-04T09:56:56.811Z,17.24
2022-11-04T09:59:28.355Z,17.24
2022-11-04T10:02:22.796Z,17.23
2022-11-04T10:05:00.387Z,17.27
2022-11-04T10:07:39.023Z,17.23
2022-11-04T10:10:13.833Z,17.23
2022-11-04T10:13:01.965Z,17.11
2022-11-04T10:15:42.720Z,17.01
2022-11-04T10:18:23.989Z,16.93
2022-11-04T10:20:58.624Z,16.89
2022-11-04T10:23:33.804Z,16.82
2022-11-04T10:26:08.600Z,16.91
2022-11-04T10:28:43.519Z,16.89
2022-11-04T10:31:14.399Z,16.74
2022-11-04T10:33:45.025Z,16.58
2022-11-04T10:36:13.948Z,16.63
2022-11-04T10:38:44.857Z,16.58
2022-11-04T10:41:23.369Z,16.70
2022-11-04T10:43:56.635Z,16.86
2022-11-04T10:46:44.430Z,16.36
2022-11-04T10:49:30.892Z,17.00
2022-11-04T10:51:59.022Z,17.03
2022-11-04T10:54:28.352Z,16.86
2022-11-04T10:56:57.608Z,17.00
2022-11-04T10:59:29.015Z,16.93
2022-11-04T11:01:58.514Z,17.03
2022-11-04T11:04:32.340Z,17.07
2022-11-04T11:07:01.588Z,17.26
2022-11-04T11:09:30.696Z,17.33
2022-11-04T11:12:00.971Z,17.44
2022-11-04T11:14:38.839Z,17.52
2022-11-04T11:17:22.170Z,17.59
2022-11-04T11:19:55.509Z,17.55
2022-11-04T11:22:32.790Z,17.58
2022-11-04T11:25:23.421Z,17.71
2022-11-04T11:27:53.259Z,17.91
2022-11-04T11:30:29.257Z,18.08
2022-11-04T11:32:59.553Z,18.31
2022-11-04T11:35:32.126Z,18.54
2022-11-04T11:38:01.293Z,18.38
2022-11-04T11:40:31.873Z,18.36
2022-11-04T11:43:01.344Z,17.01
2022-11-04T11:45:31.140Z,16.94
2022-11-04T11:47:59.301Z,17.22
2022-11-04T11:50:32.889Z,17.20
2022-11-04T11:53:17.939Z,16.92
2022-11-04T11:55:49.860Z,16.98
2022-11-04T12:01:24.128Z,17.04
2022-11-04T12:09:39.645Z,16.90
2022-11-04T12:12:37.131Z,16.96
2022-11-04T12:15:18.784Z,16.91
2022-11-04T12:17:59.871Z,16.93
2022-11-04T12:20:45.959Z,16.88
2022-11-04T12:23:19.772Z,16.80
2022-11-04T12:26:00.769Z,16.78
2022-11-04T12:28:36.524Z,16.91
2022-11-04T12:31:13.574Z,16.81
2022-11-04T12:33:48.403Z,16.85
2022-11-04T12:36:29.219Z,16.86
2022-11-04T12:39:07.194Z,16.86
2022-11-04T12:42:14.437Z,16.92
2022-11-04T12:44:34.558Z,16.89
2022-11-04T12:47:11.570Z,16.87
2022-11-04T12:50:05.451Z,16.79
2022-11-04T12:52:43.533Z,16.84
2022-11-04T12:55:44.085Z,16.69
2022-11-04T12:58:31.690Z,16.66
2022-11-04T13:01:03.708Z,16.50
2022-11-04T13:03:35.488Z,16.40
2022-11-04T13:06:09.544Z,16.36
2022-11-04T13:08:41.079Z,16.23
2022-11-04T13:11:22.809Z,16.10
2022-11-04T13:14:01.786Z,15.97
2022-11-04T13:16:31.845Z,15.92
2022-11-04T13:19:00.343Z,15.82
2022-11-04T13:21:34.305Z,15.78
2022-11-04T13:24:04.896Z,15.71
2022-11-04T13:26:33.396Z,15.67
2022-11-04T13:29:08.926Z,15.63
2022-11-04T13:31:46.555Z,15.34
2022-11-04T13:34:23.640Z,14.99
2022-11-04T13:36:59.650Z,14.90
2022-11-04T13:39:30.350Z,14.86
2022-11-04T13:42:40.339Z,14.98
2022-11-04T13:45:12.479Z,14.92
2022-11-04T13:47:47.014Z,14.94
2022-11-04T13:50:30.309Z,14.85
2022-11-04T13:52:59.724Z,14.77
2022-11-04T13:55:27.858Z,14.75
2022-11-04T13:57:58.292Z,14.63
2022-11-04T14:00:28.081Z,14.46
2022-11-04T14:02:57.997Z,14.74
2022-11-04T14:06:06.054Z,14.98
2022-11-04T14:08:36.015Z,15.01
2022-11-04T14:11:13.799Z,15.23
2022-11-04T14:14:04.697Z,15.29
2022-11-04T14:16:43.830Z,15.21
2022-11-04T14:19:57.533Z,15.35
2022-11-04T14:22:49.048Z,15.34
2022-11-04T14:25:25.241Z,15.38
2022-11-04T14:27:54.794Z,15.39
2022-11-04T14:30:31.729Z,15.30
2022-11-04T14:33:01.233Z,15.47
2022-11-04T14:35:30.568Z,15.52
2022-11-04T14:38:01.241Z,15.51
2022-11-04T14:40:47.216Z,15.41
2022-11-04T14:43:24.292Z,15.30
2022-11-04T14:45:52.526Z,15.21
2022-11-04T14:48:21.462Z,15.01
2022-11-04T14:50:54.085Z,15.27
2022-11-04T14:53:25.706Z,15.28
2022-11-04T14:56:06.427Z,15.25
2022-11-04T14:58:34.596Z,15.36
2022-11-04T15:01:03.805Z,15.39
2022-11-04T15:04:09.998Z,15.14
2022-11-04T15:06:35.222Z,15.20
2022-11-04T15:09:20.675Z,15.10
2022-11-04T15:12:07.730Z,14.98
2022-11-04T15:14:38.020Z,14.93
2022-11-04T15:17:06.127Z,15.13
2022-11-04T15:19:36.090Z,15.23
2022-11-04T15:23:46.950Z,15.25
2022-11-04T15:26:29.420Z,15.27
2022-11-04T15:29:01.037Z,15.28
2022-11-04T15:31:31.389Z,15.32
2022-11-04T15:34:03.464Z,15.38
2022-11-04T15:36:36.487Z,15.41
2022-11-04T15:39:13.453Z,15.43
2022-11-04T15:42:02.430Z,15.49
2022-11-04T15:44:33.896Z,15.40
2022-11-04T15:47:07.008Z,15.54
2022-11-04T15:49:37.338Z,15.50
2022-11-04T15:52:09.759Z,15.42
2022-11-04T15:54:42.023Z,15.53
2022-11-04T15:57:16.401Z,14.94
2022-11-04T15:59:52.798Z,15.56
2022-11-04T16:02:28.042Z,15.37
2022-11-04T16:05:23.169Z,15.36
2022-11-04T16:07:53.685Z,15.31
2022-11-04T16:10:31.219Z,15.22
2022-11-04T16:13:01.799Z,15.15
2022-11-04T16:15:39.373Z,15.14
2022-11-04T16:18:23.003Z,14.97
2022-11-04T16:20:53.115Z,14.80
2022-11-04T16:23:25.335Z,14.72
2022-11-04T16:25:59.817Z,14.33
2022-11-04T16:28:30.552Z,14.37
2022-11-04T16:30:59.475Z,14.39
2022-11-04T16:33:33.004Z,14.44
2022-11-04T16:36:01.788Z,14.45
2022-11-04T16:38:30.002Z,14.43
2022-11-04T16:40:59.644Z,14.51
2022-11-04T16:43:28.011Z,14.45
2022-11-04T16:45:56.230Z,14.49
2022-11-04T16:48:25.081Z,14.44
2022-11-04T16:50:53.347Z,14.38
2022-11-04T16:53:21.610Z,14.40
2022-11-04T16:55:50.067Z,14.40
2022-11-04T16:58:20.186Z,14.41
2022-11-04T17:00:48.613Z,14.29
2022-11-04T17:03:21.712Z,14.21
2022-11-04T17:05:50.743Z,14.19
2022-11-04T17:08:19.101Z,14.15
2022-11-04T17:10:47.687Z,14.17
2022-11-04T17:13:15.955Z,14.13
2022-11-04T17:15:45.794Z,13.87
2022-11-04T17:18:16.705Z,14.01
2022-11-04T17:20:49.225Z,13.93
2022-11-04T17:23:17.885Z,14.02
2022-11-04T17:25:46.963Z,14.14
2022-11-04T17:28:15.524Z,14.16
2022-11-04T17:30:45.844Z,14.11
2022-11-04T17:33:15.628Z,14.13
2022-11-04T17:35:46.381Z,14.05
2022-11-04T17:38:14.653Z,14.10
2022-11-04T17:40:57.385Z,14.20
2022-11-04T17:43:58.390Z,14.11
2022-11-04T17:46:38.746Z,14.04
2022-11-04T17:49:12.764Z,13.98
2022-11-04T17:51:42.660Z,13.91
2022-11-04T17:54:11.193Z,13.83
2022-11-04T17:56:41.493Z,13.90
2022-11-04T17:59:11.563Z,14.01
2022-11-04T18:01:42.574Z,14.06
2022-11-04T18:04:15.240Z,14.07
2022-11-04T18:06:44.710Z,14.06
2022-11-04T18:09:15.014Z,14.19
2022-11-04T18:12:02.346Z,14.11
2022-11-04T18:14:30.703Z,13.98
2022-11-04T18:17:00.464Z,13.91
2022-11-04T18:19:29.538Z,13.84
2022-11-04T18:21:57.770Z,13.72
2022-11-04T18:24:26.104Z,13.54
2022-11-04T18:26:54.815Z,13.47
2022-11-04T18:29:23.175Z,13.26
2022-11-04T18:31:51.496Z,13.20
2022-11-04T18:34:21.286Z,13.08
2022-11-04T18:36:50.064Z,13.06
2022-11-04T18:39:19.952Z,12.97
2022-11-04T18:41:48.822Z,12.89
2022-11-04T18:44:19.360Z,12.75
2022-11-04T18:46:48.108Z,12.62
2022-11-04T18:49:17.640Z,12.67
2022-11-04T18:51:47.565Z,12.87
2022-11-04T18:54:16.254Z,12.93
2022-11-04T18:56:44.905Z,13.02
2022-11-04T18:59:15.367Z,12.94
2022-11-04T19:01:45.551Z,12.88
2022-11-04T19:04:14.678Z,12.86
2022-11-04T19:06:45.904Z,12.50
2022-11-04T19:09:46.024Z,12.29
2022-11-04T19:12:24.003Z,12.06
2022-11-04T19:14:53.158Z,12.57
2022-11-04T19:17:22.329Z,12.79
2022-11-04T19:19:51.373Z,13.04
2022-11-04T19:22:21.124Z,13.15
2022-11-04T19:24:49.405Z,13.23
2022-11-04T19:27:19.558Z,13.22
2022-11-04T19:29:47.898Z,13.29
2022-11-04T19:32:16.112Z,13.35
2022-11-04T19:34:44.682Z,13.35
2022-11-04T19:37:13.373Z,13.37
2022-11-04T19:39:43.152Z,13.39
2022-11-04T19:42:29.579Z,13.42
2022-11-04T19:44:57.900Z,13.36
2022-11-04T19:47:26.124Z,13.22
2022-11-04T19:49:55.406Z,13.34
2022-11-04T19:52:23.740Z,13.35
2022-11-04T19:54:53.343Z,13.39
2022-11-04T19:57:21.689Z,13.45
2022-11-04T19:59:51.804Z,13.48
2022-11-04T20:02:20.519Z,13.49
2022-11-04T20:04:50.056Z,13.63
2022-11-04T20:07:18.861Z,13.61
2022-11-04T20:09:47.098Z,13.67
2022-11-04T20:12:34.459Z,13.74
2022-11-04T20:15:02.766Z,13.69
2022-11-04T20:17:33.217Z,13.75
2022-11-04T20:20:01.620Z,13.77
2022-11-04T20:22:29.892Z,13.79
2022-11-04T20:24:58.169Z,13.78
2022-11-04T20:27:27.890Z,13.78
2022-11-04T20:29:56.172Z,13.73
2022-11-04T20:32:24.702Z,13.72
2022-11-04T20:34:53.451Z,13.68
2022-11-04T20:37:21.630Z,13.73
2022-11-04T20:39:49.996Z,13.73
2022-11-04T20:42:18.223Z,13.76
2022-11-04T20:44:47.912Z,13.74
2022-11-04T20:47:17.392Z,13.74
2022-11-04T20:49:45.797Z,13.74
2022-11-04T20:52:14.003Z,13.75
2022-11-04T20:54:42.282Z,13.74
2022-11-04T20:57:10.662Z,13.70
2022-11-04T20:59:38.892Z,13.57
2022-11-04T21:02:08.764Z,13.48
2022-11-04T21:04:37.275Z,13.44
2022-11-04T21:07:06.825Z,13.31
2022-11-04T21:09:35.093Z,13.05
2022-11-04T21:12:03.494Z,12.87
2022-11-04T21:14:34.725Z,12.74
2022-11-04T21:17:03.415Z,12.51
2022-11-04T21:19:33.550Z,12.50
2022-11-04T21:22:01.851Z,12.53
2022-11-04T21:24:32.759Z,12.56
2022-11-04T21:27:04.729Z,12.54
2022-11-04T21:29:32.970Z,12.53
2022-11-04T21:32:01.166Z,12.49
2022-11-04T21:34:29.484Z,12.53
2022-11-04T21:36:59.060Z,12.66
2022-11-04T21:39:27.370Z,12.70
2022-11-04T21:41:55.639Z,12.72
2022-11-04T21:44:23.895Z,12.73
2022-11-04T21:46:52.643Z,12.68
2022-11-04T21:49:21.081Z,12.76
2022-11-04T21:51:49.445Z,12.69
2022-11-04T21:54:19.348Z,12.67
2022-11-04T21:56:47.636Z,12.81
2022-11-04T21:59:18.515Z,12.82
2022-11-04T22:01:47.145Z,12.82
2022-11-04T22:04:15.499Z,12.94
2022-11-04T22:06:43.771Z,13.02
2022-11-04T22:09:13.261Z,12.87
2022-11-04T22:11:42.866Z,12.76
2022-11-04T22:14:13.648Z,12.65
2022-11-04T22:16:41.756Z,12.64
2022-11-04T22:19:13.464Z,12.63
2022-11-04T22:21:44.349Z,12.48
2022-11-04T22:24:13.027Z,12.59
2022-11-04T22:26:44.153Z,12.57
2022-11-04T22:29:12.515Z,12.51
2022-11-04T22:31:44.341Z,12.52
2022-11-04T22:34:12.620Z,12.50
2022-11-04T22:36:41.063Z,12.54
2022-11-04T22:39:16.125Z,12.68
2022-11-04T22:41:47.201Z,12.50
2022-11-04T22:44:15.969Z,12.59
2022-11-04T22:46:44.367Z,12.64
2022-11-04T22:49:13.031Z,12.74
2022-11-04T22:51:41.346Z,12.84
2022-11-04T22:54:11.415Z,12.96
2022-11-04T22:56:39.829Z,12.96
2022-11-04T22:59:09.397Z,12.85
2022-11-04T23:01:38.329Z,12.39
2022-11-04T23:04:11.589Z,12.11
2022-11-04T23:06:40.038Z,11.87
2022-11-04T23:09:08.413Z,12.00
2022-11-04T23:11:54.321Z,11.86
2022-11-04T23:14:41.880Z,11.99
2022-11-04T23:17:34.412Z,12.04
2022-11-04T23:20:03.134Z,12.05
2022-11-04T23:22:49.031Z,12.07
2022-11-04T23:25:17.366Z,12.10
2022-11-04T23:28:06.344Z,11.95
2022-11-04T23:30:38.411Z,11.81
2022-11-04T23:33:08.997Z,11.70
2022-11-04T23:35:56.172Z,11.70
2022-11-04T23:38:25.144Z,11.57
2022-11-04T23:41:14.385Z,11.55
2022-11-04T23:43:42.766Z,11.59
2022-11-04T23:46:30.901Z,11.50
2022-11-04T23:49:16.671Z,11.42
2022-11-04T23:52:02.392Z,11.47
2022-11-04T23:54:48.393Z,11.47
2022-11-04T23:57:36.124Z,11.39
